createdAt,value
2022-11-22T00:00:18.987Z,34.1
2022-11-22T00:05:19.178Z,34.1
2022-11-22T00:10:19.090Z,34.0
2022-11-22T00:15:19.133Z,34.1
2022-11-22T00:20:19.122Z,34.1
2022-11-22T00:25:16.080Z,34.0
2022-11-22T00:30:15.917Z,34.0
2022-11-22T00:35:19.235Z,34.0
2022-11-22T00:40:19.174Z,34.1
2022-11-22T00:45:19.197Z,34.1
2022-11-22T00:50:19.272Z,34.1
2022-11-22T00:55:19.275Z,34.2
2022-11-22T01:00:19.300Z,34.3
2022-11-22T01:05:19.246Z,34.4
2022-11-22T01:10:19.239Z,34.4
2022-11-22T01:15:19.381Z,34.6
2022-11-22T01:20:16.172Z,34.7
2022-11-22T01:25:19.300Z,34.8
2022-11-22T01:30:19.142Z,34.8
2022-11-22T01:35:19.339Z,35.0
2022-11-22T01:40:19.334Z,35.1
2022-11-22T01:45:19.310Z,35.2
2022-11-22T01:50:19.443Z,35.2
2022-11-22T01:55:19.367Z,35.3
2022-11-22T02:00:19.291Z,35.3
2022-11-22T02:05:19.352Z,35.3
2022-11-22T02:10:16.277Z,35.2
2022-11-22T02:15:16.219Z,35.2
2022-11-22T02:20:19.327Z,35.2
2022-11-22T02:25:19.489Z,35.2
2022-11-22T02:30:19.306Z,35.1
2022-11-22T02:35:19.470Z,35.1
2022-11-22T02:40:19.567Z,35.1
2022-11-22T02:45:19.412Z,35.2
2022-11-22T02:50:19.469Z,35.2
2022-11-22T02:55:19.514Z,35.2
2022-11-22T03:00:19.494Z,35.3
2022-11-22T03:05:16.511Z,35.2
2022-11-22T03:10:16.381Z,35.3
2022-11-22T03:15:19.516Z,35.3
2022-11-22T03:20:19.588Z,35.4
2022-11-22T03:25:19.517Z,35.4
2022-11-22T03:30:19.426Z,35.5
2022-11-22T03:35:19.561Z,35.6
2022-11-22T03:40:19.576Z,35.6
2022-11-22T03:45:19.673Z,35.5
2022-11-22T03:50:19.627Z,35.6
2022-11-22T03:55:19.609Z,35.6
2022-11-22T04:00:16.510Z,35.6
2022-11-22T04:05:16.692Z,35.7
2022-11-22T04:10:22.452Z,35.7
2022-11-22T04:15:19.634Z,35.6
2022-11-22T04:20:19.541Z,35.6
2022-11-22T04:25:19.684Z,35.6
2022-11-22T04:30:20.916Z,35.7
2022-11-22T04:35:19.648Z,35.5
2022-11-22T04:40:19.692Z,35.5
2022-11-22T04:45:19.697Z,35.5
2022-11-22T04:50:16.788Z,35.5
2022-11-22T04:55:16.605Z,35.4
2022-11-22T05:00:19.002Z,35.4
2022-11-22T05:05:15.853Z,35.5
2022-11-22T05:10:17.319Z,35.4
2022-11-22T05:15:19.448Z,35.4
2022-11-22T05:20:19.097Z,35.5
2022-11-22T05:25:22.694Z,35.6
2022-11-22T05:30:18.946Z,35.7
2022-11-22T05:35:19.040Z,35.7
2022-11-22T05:40:19.111Z,35.7
2022-11-22T05:45:19.045Z,35.8
2022-11-22T05:50:19.116Z,35.9
2022-11-22T05:55:19.057Z,35.9
2022-11-22T06:00:16.040Z,36.0
2022-11-22T06:05:15.970Z,36.1
2022-11-22T06:10:19.175Z,36.1
2022-11-22T06:15:19.327Z,36.1
2022-11-22T06:20:19.104Z,36.2
2022-11-22T06:25:19.188Z,36.1
2022-11-22T06:30:19.110Z,36.2
2022-11-22T06:35:19.159Z,36.2
2022-11-22T06:40:19.210Z,36.3
2022-11-22T06:45:19.163Z,36.2
2022-11-22T06:50:21.901Z,36.3
2022-11-22T06:55:48.524Z,36.2
2022-11-22T07:00:16.300Z,36.3
2022-11-22T07:05:25.620Z,36.3
2022-11-22T07:10:19.208Z,36.2
2022-11-22T07:15:19.450Z,36.1
2022-11-22T07:20:19.412Z,35.9
2022-11-22T07:25:19.396Z,36.0
2022-11-22T07:30:19.158Z,35.9
2022-11-22T07:35:19.385Z,35.9
2022-11-22T07:40:19.312Z,35.7
2022-11-22T07:45:16.310Z,35.7
2022-11-22T07:50:16.154Z,35.5
2022-11-22T07:55:19.394Z,35.4
2022-11-22T08:00:19.379Z,35.3
2022-11-22T08:05:19.392Z,35.2
2022-11-22T08:10:19.289Z,35.2
2022-11-22T08:15:19.269Z,35.2
2022-11-22T08:20:19.383Z,35.2
2022-11-22T08:25:19.403Z,35.0
2022-11-22T08:30:19.312Z,35.0
2022-11-22T08:35:19.472Z,34.9
2022-11-22T08:40:16.385Z,34.8
2022-11-22T08:45:16.275Z,34.7
2022-11-22T08:50:19.571Z,34.6
2022-11-22T08:55:19.577Z,34.4
2022-11-22T09:00:19.589Z,34.4
2022-11-22T09:05:19.499Z,34.3
2022-11-22T09:10:19.507Z,34.2
2022-11-22T09:15:19.371Z,34.3
2022-11-22T09:20:19.584Z,34.4
2022-11-22T09:25:19.623Z,34.4
2022-11-22T09:30:19.643Z,34.3
2022-11-22T09:35:16.508Z,34.3
2022-11-22T09:40:19.918Z,34.3
2022-11-22T09:45:19.653Z,34.2
2022-11-22T09:50:19.601Z,34.0
2022-11-22T09:55:23.912Z,34.0
2022-11-22T10:00:19.675Z,34.0
2022-11-22T10:05:19.695Z,33.9
2022-11-22T10:10:19.706Z,33.8
2022-11-22T10:15:19.649Z,33.7
2022-11-22T10:20:19.721Z,33.4
2022-11-22T10:25:17.112Z,33.2
2022-11-22T10:30:16.694Z,33.1
2022-11-22T10:35:19.847Z,32.9
2022-11-22T10:40:19.939Z,32.8
2022-11-22T10:45:19.700Z,32.2
2022-11-22T10:50:19.909Z,31.9
2022-11-22T10:55:19.786Z,31.8
2022-11-22T11:00:19.786Z,31.7
2022-11-22T11:05:19.779Z,31.5
2022-11-22T11:10:27.864Z,31.4
2022-11-22T11:15:19.791Z,31.1
2022-11-22T11:20:16.810Z,30.6
2022-11-22T11:25:16.900Z,30.5
2022-11-22T11:30:19.800Z,30.4
2022-11-22T11:35:19.787Z,30.1
2022-11-22T11:40:19.858Z,30.0
2022-11-22T11:45:19.881Z,30.1
2022-11-22T11:50:23.936Z,30.2
2022-11-22T11:55:19.869Z,30.3
2022-11-22T12:00:19.961Z,30.5
2022-11-22T12:05:19.889Z,30.5
2022-11-22T12:10:19.993Z,30.5
2022-11-22T12:15:17.073Z,30.8
2022-11-22T12:20:16.937Z,31.0
2022-11-22T12:25:35.714Z,31.1
2022-11-22T12:30:19.964Z,31.3
2022-11-22T12:35:20.026Z,31.3
2022-11-22T12:40:20.016Z,31.4
2022-11-22T12:45:20.051Z,32.1
2022-11-22T12:50:20.036Z,32.6
2022-11-22T12:55:20.049Z,33.3
2022-11-22T13:00:20.121Z,33.9
2022-11-22T13:05:16.958Z,34.4
2022-11-22T13:10:17.009Z,35.3
2022-11-22T13:15:20.040Z,35.9
2022-11-22T13:20:20.130Z,35.8
2022-11-22T13:25:20.056Z,35.9
2022-11-22T13:30:20.052Z,36.2
2022-11-22T13:35:20.245Z,36.5
2022-11-22T13:40:20.159Z,36.8
2022-11-22T13:45:20.167Z,37.1
2022-11-22T13:50:20.191Z,37.5
2022-11-22T13:55:20.134Z,37.9
2022-11-22T14:00:17.069Z,38.6
2022-11-22T14:05:17.163Z,39.1
2022-11-22T14:10:20.241Z,39.3
2022-11-22T14:15:20.259Z,39.5
2022-11-22T14:20:20.193Z,39.7
2022-11-22T14:25:20.374Z,39.7
2022-11-22T14:30:20.090Z,39.9
2022-11-22T14:35:23.637Z,39.9
2022-11-22T14:40:20.441Z,39.8
2022-11-22T14:45:23.224Z,40.1
2022-11-22T14:50:17.220Z,40.3
2022-11-22T14:55:17.199Z,40.5
2022-11-22T15:00:20.366Z,40.5
2022-11-22T15:09:17.860Z,40.6
2022-11-22T15:09:19.919Z,40.6
2022-11-22T15:09:21.751Z,40.6
2022-11-22T15:10:20.399Z,40.7
2022-11-22T15:57:19.609Z,41.6
2022-11-22T16:00:20.493Z,41.6
2022-11-22T16:06:08.215Z,41.6
2022-11-22T16:10:20.492Z,41.8
2022-11-22T16:15:20.546Z,41.9
2022-11-22T16:20:20.499Z,42.1
2022-11-22T16:25:20.471Z,42.1
2022-11-22T16:30:23.605Z,42.2
2022-11-22T16:35:34.012Z,42.2
2022-11-22T16:40:17.438Z,42.3
2022-11-22T16:45:20.601Z,42.4
2022-11-22T16:50:20.507Z,42.8
2022-11-22T16:55:20.591Z,42.9
2022-11-22T17:00:20.607Z,43.0
2022-11-22T17:05:20.755Z,43.1
2022-11-22T17:10:20.524Z,43.6
2022-11-22T17:15:15.529Z,43.4
2022-11-22T17:20:20.652Z,43.4
2022-11-22T17:25:18.665Z,43.5
2022-11-22T17:30:18.507Z,43.7
2022-11-22T17:35:18.606Z,43.8
2022-11-22T17:40:18.597Z,43.9
2022-11-22T17:45:18.698Z,44.0
2022-11-22T17:50:18.659Z,44.1
2022-11-22T17:55:18.631Z,44.5
2022-11-22T18:00:18.706Z,44.9
2022-11-22T18:05:18.703Z,45.2
2022-11-22T18:10:15.682Z,45.0
2022-11-22T18:15:15.619Z,44.8
2022-11-22T18:20:18.647Z,44.6
2022-11-22T18:25:18.778Z,44.8
2022-11-22T18:30:18.641Z,45.2
2022-11-22T18:35:18.871Z,45.4
2022-11-22T18:40:18.753Z,45.4
2022-11-22T18:45:18.701Z,45.3
2022-11-22T18:50:18.854Z,45.4
2022-11-22T18:55:18.783Z,45.1
2022-11-22T19:00:18.799Z,45.4
2022-11-22T19:05:15.699Z,45.6
2022-11-22T19:10:18.781Z,45.5
2022-11-22T19:15:18.837Z,45.6
2022-11-22T19:20:47.471Z,45.7
2022-11-22T19:25:18.846Z,45.8
2022-11-22T19:30:18.702Z,45.7
2022-11-22T19:35:18.891Z,45.8
2022-11-22T19:40:18.848Z,45.9
2022-11-22T19:45:18.953Z,45.8
2022-11-22T19:50:18.857Z,45.8
2022-11-22T19:55:15.790Z,45.8
2022-11-22T20:00:15.788Z,45.8
2022-11-22T20:05:18.915Z,45.8
2022-11-22T20:10:18.916Z,45.8
2022-11-22T20:15:18.917Z,45.7
2022-11-22T20:20:18.836Z,45.8
2022-11-22T20:25:18.899Z,45.7
2022-11-22T20:30:18.873Z,45.6
2022-11-22T20:35:19.026Z,45.5
2022-11-22T20:40:19.027Z,45.5
2022-11-22T20:45:18.939Z,45.3
2022-11-22T20:50:15.887Z,45.2
2022-11-22T20:55:15.887Z,45.0
2022-11-22T21:00:19.181Z,44.8
2022-11-22T21:05:19.070Z,44.5
2022-11-22T21:10:19.081Z,44.1
2022-11-22T21:15:19.010Z,43.6
2022-11-22T21:20:19.083Z,43.4
2022-11-22T21:25:19.093Z,43.1
2022-11-22T21:30:18.869Z,42.5
2022-11-22T21:35:19.058Z,42.1
2022-11-22T21:40:16.008Z,41.6
2022-11-22T21:45:15.987Z,41.0
2022-11-22T21:50:19.169Z,40.6
2022-11-22T21:55:19.070Z,40.1
2022-11-22T22:00:19.082Z,39.7
2022-11-22T22:05:19.186Z,39.4
2022-11-22T22:10:19.159Z,39.1
2022-11-22T22:15:19.095Z,38.9
2022-11-22T22:20:19.060Z,38.7
2022-11-22T22:25:19.103Z,38.2
2022-11-22T22:30:19.085Z,37.9
2022-11-22T22:35:16.316Z,37.7
2022-11-22T22:40:16.120Z,37.4
2022-11-22T22:45:19.189Z,37.1
2022-11-22T22:50:19.216Z,36.9
2022-11-22T22:55:19.163Z,36.6
2022-11-22T23:00:19.309Z,36.4
2022-11-22T23:05:19.776Z,36.1
2022-11-22T23:10:19.177Z,35.9
2022-11-22T23:15:32.939Z,35.7
2022-11-22T23:20:19.305Z,35.7
2022-11-22T23:25:19.282Z,35.5
2022-11-22T23:30:16.234Z,35.2
2022-11-22T23:35:16.163Z,35.1
2022-11-22T23:40:19.365Z,34.9
2022-11-22T23:45:19.184Z,34.8
2022-11-22T23:50:19.283Z,34.8
2022-11-22T23:55:19.301Z,34.6
